createdAt,value
2018-09-19T00:01:08.584Z,19.90
2018-09-19T00:04:11.662Z,19.90
2018-09-19T00:07:14.770Z,19.80
2018-09-19T00:10:17.840Z,19.80
2018-09-19T00:13:20.984Z,19.80
2018-09-19T00:16:24.098Z,19.80
2018-09-19T00:19:27.197Z,19.80
2018-09-19T00:22:30.309Z,19.80
2018-09-19T00:25:33.433Z,19.80
2018-09-19T00:28:36.507Z,19.80
2018-09-19T00:31:39.577Z,19.80
2018-09-19T00:34:42.739Z,19.80
2018-09-19T00:37:45.854Z,19.70
2018-09-19T00:40:48.926Z,19.80
2018-09-19T00:43:52.045Z,19.70
2018-09-19T00:46:55.172Z,19.60
2018-09-19T00:49:58.260Z,19.60
2018-09-19T00:53:01.391Z,19.50
2018-09-19T00:56:04.468Z,19.50
2018-09-19T00:59:07.614Z,19.40
2018-09-19T01:02:10.733Z,19.40
2018-09-19T01:05:14.035Z,19.40
2018-09-19T01:08:17.180Z,19.50
2018-09-19T01:11:20.427Z,19.50
2018-09-19T01:14:23.532Z,19.50
2018-09-19T01:17:26.636Z,19.40
2018-09-19T01:20:29.712Z,19.30
2018-09-19T01:23:32.805Z,19.30
2018-09-19T01:26:35.969Z,19.20
2018-09-19T01:29:46.879Z,19.20
2018-09-19T01:32:49.988Z,19.20
2018-09-19T01:35:53.041Z,19.30
2018-09-19T01:38:56.133Z,19.30
2018-09-19T01:41:59.216Z,19.20
2018-09-19T01:45:02.415Z,19.10
2018-09-19T01:48:05.529Z,19.10
2018-09-19T01:51:08.599Z,19.00
2018-09-19T01:54:11.711Z,19.00
2018-09-19T01:57:14.814Z,18.90
2018-09-19T02:00:17.881Z,18.80
2018-09-19T02:03:20.988Z,18.90
2018-09-19T02:06:24.089Z,18.90
2018-09-19T02:09:27.164Z,18.90
2018-09-19T02:12:30.437Z,18.90
2018-09-19T02:15:33.768Z,18.90
2018-09-19T02:18:36.867Z,18.80
2018-09-19T02:21:39.922Z,18.70
2018-09-19T02:24:43.246Z,18.70
2018-09-19T02:27:46.371Z,18.60
2018-09-19T02:30:49.563Z,18.60
2018-09-19T02:33:53.121Z,18.60
2018-09-19T02:36:56.285Z,18.60
2018-09-19T02:39:59.360Z,18.60
2018-09-19T02:43:02.469Z,18.50
2018-09-19T02:46:05.551Z,18.50
2018-09-19T02:49:08.649Z,18.50
2018-09-19T02:52:11.735Z,18.50
2018-09-19T02:55:14.838Z,18.40
2018-09-19T02:58:17.928Z,18.30
2018-09-19T03:01:20.995Z,18.30
2018-09-19T03:04:24.131Z,18.20
2018-09-19T03:07:27.214Z,18.10
2018-09-19T03:10:30.399Z,18.20
2018-09-19T03:13:33.485Z,18.20
2018-09-19T03:16:36.592Z,18.30
2018-09-19T03:19:39.653Z,18.30
2018-09-19T03:22:42.908Z,18.30
2018-09-19T03:25:45.993Z,18.30
2018-09-19T03:28:49.109Z,18.30
2018-09-19T03:31:52.229Z,18.30
2018-09-19T03:34:55.316Z,18.30
2018-09-19T03:37:58.549Z,18.30
2018-09-19T03:41:01.654Z,18.20
2018-09-19T03:44:04.945Z,18.10
2018-09-19T03:47:08.018Z,18.10
2018-09-19T03:50:11.133Z,18.10
2018-09-19T03:53:14.227Z,18.00
2018-09-19T03:56:17.462Z,18.00
2018-09-19T03:59:21.031Z,18.00
2018-09-19T04:02:24.137Z,18.00
2018-09-19T04:05:27.280Z,17.90
2018-09-19T04:08:31.350Z,17.90
2018-09-19T04:11:34.481Z,17.90
2018-09-19T04:14:37.551Z,17.80
2018-09-19T04:17:40.689Z,17.90
2018-09-19T04:20:43.737Z,17.70
2018-09-19T04:23:46.843Z,17.50
2018-09-19T04:26:49.919Z,17.40
2018-09-19T04:29:53.021Z,17.40
2018-09-19T04:32:56.157Z,17.40
2018-09-19T04:35:59.304Z,17.40
2018-09-19T04:39:02.393Z,17.50
2018-09-19T04:42:05.682Z,17.60
2018-09-19T04:45:08.807Z,17.70
2018-09-19T04:48:18.292Z,17.70
2018-09-19T04:51:21.394Z,17.60
2018-09-19T04:54:24.503Z,17.60
2018-09-19T04:57:27.581Z,17.60
2018-09-19T05:00:30.685Z,17.70
2018-09-19T05:03:33.801Z,17.60
2018-09-19T05:06:36.905Z,17.50
2018-09-19T05:09:40.516Z,17.50
2018-09-19T05:12:43.601Z,17.50
2018-09-19T05:15:46.701Z,17.50
2018-09-19T05:18:50.088Z,17.70
2018-09-19T05:21:53.180Z,17.70
2018-09-19T05:24:56.261Z,17.80
2018-09-19T05:27:59.375Z,17.90
2018-09-19T05:31:02.461Z,18.00
2018-09-19T05:34:05.565Z,18.00
2018-09-19T05:37:08.674Z,18.20
2018-09-19T05:40:11.741Z,18.20
2018-09-19T05:43:14.822Z,18.40
2018-09-19T05:46:18.017Z,18.80
2018-09-19T05:49:21.161Z,19.50
2018-09-19T05:52:25.755Z,20.30
2018-09-19T05:55:28.846Z,21.10
2018-09-19T05:58:31.936Z,22.00
2018-09-19T06:01:35.019Z,22.60
2018-09-19T06:04:38.125Z,23.10
2018-09-19T06:07:41.198Z,23.60
2018-09-19T06:10:44.269Z,24.00
2018-09-19T06:13:47.396Z,24.70
2018-09-19T06:16:50.489Z,25.30
2018-09-19T06:19:53.580Z,25.90
2018-09-19T06:22:56.677Z,26.40
2018-09-19T06:25:59.766Z,27.00
2018-09-19T06:29:02.862Z,27.40
2018-09-19T06:32:06.132Z,27.90
2018-09-19T06:35:09.222Z,28.40
2018-09-19T06:38:12.365Z,28.70
2018-09-19T06:41:15.437Z,29.00
2018-09-19T06:44:18.547Z,29.40
2018-09-19T06:47:21.628Z,29.80
2018-09-19T06:50:24.745Z,30.10
2018-09-19T06:53:27.797Z,30.50
2018-09-19T06:56:30.936Z,31.00
2018-09-19T06:59:34.033Z,30.90
2018-09-19T07:02:37.113Z,30.90
2018-09-19T07:05:40.214Z,30.90
2018-09-19T07:08:43.282Z,31.00
2018-09-19T07:11:46.390Z,31.20
2018-09-19T07:14:49.479Z,31.20
2018-09-19T07:17:52.553Z,31.70
2018-09-19T07:20:55.687Z,32.20
2018-09-19T07:23:58.757Z,32.70
2018-09-19T07:27:02.546Z,32.90
2018-09-19T07:30:06.040Z,32.50
2018-09-19T07:33:09.165Z,32.20
2018-09-19T07:36:12.273Z,32.00
2018-09-19T07:39:15.375Z,32.30
2018-09-19T07:42:19.010Z,32.60
2018-09-19T07:45:22.055Z,32.60
2018-09-19T07:48:25.117Z,32.20
2018-09-19T07:51:28.206Z,32.00
2018-09-19T07:54:31.389Z,31.90
2018-09-19T07:57:34.404Z,31.90
2018-09-19T08:00:37.573Z,32.10
2018-09-19T08:03:40.605Z,32.10
2018-09-19T08:06:43.784Z,32.10
2018-09-19T08:09:46.885Z,32.30
2018-09-19T08:12:50.425Z,32.70
2018-09-19T08:15:53.519Z,32.30
2018-09-19T08:18:56.593Z,31.70
2018-09-19T08:21:59.669Z,31.00
2018-09-19T08:25:02.781Z,30.70
2018-09-19T08:28:05.877Z,31.00
2018-09-19T08:31:08.985Z,31.50
2018-09-19T08:34:12.125Z,31.90
2018-09-19T08:37:15.202Z,32.20
2018-09-19T08:40:18.326Z,32.20
2018-09-19T08:43:21.405Z,32.10
2018-09-19T08:46:24.529Z,31.80
2018-09-19T08:49:28.028Z,31.50
2018-09-19T08:52:41.291Z,31.10
2018-09-19T08:55:44.532Z,30.60
2018-09-19T08:58:51.028Z,30.40
2018-09-19T09:01:57.480Z,30.00
2018-09-19T09:05:02.898Z,29.60
2018-09-19T09:08:20.122Z,29.10
2018-09-19T09:11:41.581Z,29.00
2018-09-19T09:14:50.741Z,28.70
2018-09-19T09:17:57.037Z,28.40
2018-09-19T09:21:01.909Z,28.20
2018-09-19T09:24:11.501Z,28.00
2018-09-19T09:27:21.589Z,27.70
2018-09-19T09:30:38.099Z,27.80
2018-09-19T09:33:47.097Z,27.90
2018-09-19T09:37:03.760Z,27.80
2018-09-19T09:40:12.376Z,27.70
2018-09-19T09:43:31.694Z,27.50
2018-09-19T09:46:57.990Z,27.60
2018-09-19T09:50:05.049Z,27.60
2018-09-19T09:53:11.552Z,27.90
2018-09-19T09:56:38.573Z,28.00
2018-09-19T09:59:46.793Z,28.10
2018-09-19T10:02:53.103Z,28.00
2018-09-19T10:06:03.912Z,27.90
2018-09-19T10:09:17.584Z,27.90
2018-09-19T10:12:21.782Z,27.80
2018-09-19T10:15:25.991Z,27.80
2018-09-19T10:18:29.337Z,27.70
2018-09-19T10:21:32.479Z,27.50
2018-09-19T10:24:35.706Z,27.40
2018-09-19T10:27:55.698Z,27.30
2018-09-19T10:31:03.232Z,27.50
2018-09-19T10:34:07.364Z,27.60
2018-09-19T10:37:16.131Z,27.50
2018-09-19T10:40:24.634Z,27.40
2018-09-19T10:43:40.809Z,27.30
2018-09-19T10:50:01.978Z,27.20
2018-09-19T10:53:12.693Z,27.40
2018-09-19T10:56:17.873Z,27.50
2018-09-19T10:59:21.462Z,27.30
2018-09-19T11:02:24.662Z,27.30
2018-09-19T11:05:31.332Z,27.40
2018-09-19T11:08:35.533Z,27.30
2018-09-19T11:11:40.041Z,27.40
2018-09-19T11:14:48.237Z,27.40
2018-09-19T11:17:52.949Z,27.30
2018-09-19T11:21:01.476Z,27.20
2018-09-19T11:24:11.633Z,27.00
2018-09-19T11:27:14.775Z,27.00
2018-09-19T11:30:19.901Z,27.00
2018-09-19T11:33:23.017Z,27.10
2018-09-19T11:36:26.113Z,27.10
2018-09-19T11:39:42.599Z,27.00
2018-09-19T11:42:45.677Z,26.80
2018-09-19T11:46:00.844Z,26.80
2018-09-19T11:49:03.916Z,26.80
2018-09-19T11:52:10.225Z,26.90
2018-09-19T11:55:13.298Z,26.90
2018-09-19T11:58:16.468Z,26.90
2018-09-19T12:01:19.574Z,26.80
2018-09-19T12:04:22.691Z,26.80
2018-09-19T12:07:25.890Z,26.90
2018-09-19T12:10:28.897Z,26.90
2018-09-19T12:13:31.985Z,27.00
2018-09-19T12:16:35.501Z,27.10
2018-09-19T12:19:38.633Z,27.00
2018-09-19T12:22:41.698Z,27.00
2018-09-19T12:25:44.806Z,27.00
2018-09-19T12:28:47.898Z,27.00
2018-09-19T12:31:51.338Z,26.90
2018-09-19T12:34:54.470Z,26.90
2018-09-19T12:37:57.562Z,26.90
2018-09-19T12:41:13.225Z,27.00
2018-09-19T12:44:16.309Z,27.10
2018-09-19T12:47:19.787Z,27.10
2018-09-19T12:50:22.893Z,27.00
2018-09-19T12:53:26.057Z,27.00
2018-09-19T12:56:29.222Z,27.00
2018-09-19T12:59:32.322Z,27.00
2018-09-19T13:02:35.413Z,26.90
2018-09-19T13:05:38.540Z,26.90
2018-09-19T13:08:41.663Z,26.80
2018-09-19T13:11:45.214Z,26.80
2018-09-19T13:14:48.316Z,26.80
2018-09-19T13:17:51.450Z,26.80
2018-09-19T13:20:54.549Z,26.80
2018-09-19T13:23:57.654Z,26.80
2018-09-19T13:27:00.789Z,26.90
2018-09-19T13:30:03.933Z,26.80
2018-09-19T13:33:07.029Z,26.70
2018-09-19T13:36:10.117Z,26.70
2018-09-19T13:39:13.529Z,26.70
2018-09-19T13:42:16.629Z,26.80
2018-09-19T13:45:19.751Z,26.70
2018-09-19T13:48:22.871Z,26.70
2018-09-19T13:51:25.959Z,26.70
2018-09-19T13:54:29.068Z,26.60
2018-09-19T13:57:32.145Z,26.60
2018-09-19T14:00:35.273Z,26.60
2018-09-19T14:03:38.417Z,26.50
2018-09-19T14:06:45.561Z,26.40
2018-09-19T14:09:48.718Z,26.40
2018-09-19T14:12:51.794Z,26.50
2018-09-19T14:15:54.885Z,26.50
2018-09-19T14:18:58.054Z,26.50
2018-09-19T14:22:01.165Z,26.50
2018-09-19T14:25:04.281Z,26.50
2018-09-19T14:28:07.358Z,26.50
2018-09-19T14:31:10.452Z,26.50
2018-09-19T14:34:13.538Z,26.50
2018-09-19T14:37:16.654Z,26.50
2018-09-19T14:40:19.757Z,26.50
2018-09-19T14:43:22.893Z,26.50
2018-09-19T14:46:25.976Z,26.50
2018-09-19T14:49:29.105Z,26.40
2018-09-19T14:52:32.213Z,26.40
2018-09-19T14:55:35.390Z,26.50
2018-09-19T14:58:38.506Z,26.60
2018-09-19T15:01:41.681Z,26.60
2018-09-19T15:04:44.770Z,26.60
2018-09-19T15:07:47.917Z,26.50
2018-09-19T15:10:51.030Z,26.40
2018-09-19T15:13:54.178Z,26.40
2018-09-19T15:16:57.278Z,26.30
2018-09-19T15:20:00.377Z,26.30
2018-09-19T15:23:03.565Z,26.30
2018-09-19T15:26:07.141Z,26.40
2018-09-19T15:29:10.260Z,26.30
2018-09-19T15:32:13.361Z,26.20
2018-09-19T15:35:16.413Z,26.20
2018-09-19T15:38:19.903Z,26.20
2018-09-19T15:41:23.434Z,26.10
2018-09-19T15:44:26.733Z,26.20
2018-09-19T15:47:36.606Z,26.10
2018-09-19T15:50:39.957Z,26.10
2018-09-19T15:53:44.337Z,26.00
2018-09-19T15:56:47.418Z,26.00
2018-09-19T15:59:54.110Z,26.00
2018-09-19T16:02:57.199Z,26.00
2018-09-19T16:06:00.302Z,25.90
2018-09-19T16:09:04.490Z,25.90
2018-09-19T16:12:07.610Z,25.90
2018-09-19T16:15:10.745Z,25.80
2018-09-19T16:18:13.837Z,25.90
2018-09-19T16:21:16.942Z,25.80
2018-09-19T16:24:20.185Z,25.70
2018-09-19T16:27:23.566Z,25.70
2018-09-19T16:30:26.673Z,25.60
2018-09-19T16:33:29.765Z,25.60
2018-09-19T16:36:32.863Z,25.60
2018-09-19T16:39:36.061Z,25.60
2018-09-19T16:42:39.165Z,25.50
2018-09-19T16:45:43.427Z,25.50
2018-09-19T16:48:46.498Z,25.40
2018-09-19T16:51:49.635Z,25.40
2018-09-19T16:54:52.743Z,25.30
2018-09-19T16:57:55.810Z,25.30
2018-09-19T17:00:58.918Z,25.20
2018-09-19T17:04:01.985Z,25.10
2018-09-19T17:07:05.141Z,25.00
2018-09-19T17:10:08.274Z,25.00
2018-09-19T17:13:11.449Z,24.90
2018-09-19T17:16:14.614Z,24.90
2018-09-19T17:19:17.741Z,24.80
2018-09-19T17:22:20.830Z,24.80
2018-09-19T17:25:23.999Z,24.70
2018-09-19T17:28:27.082Z,24.60
2018-09-19T17:31:30.165Z,24.50
2018-09-19T17:34:33.373Z,24.40
2018-09-19T17:37:36.458Z,24.30
2018-09-19T17:40:39.557Z,24.30
2018-09-19T17:43:48.634Z,24.20
2018-09-19T17:46:51.729Z,24.20
2018-09-19T17:49:54.858Z,24.10
2018-09-19T17:52:57.903Z,24.10
2018-09-19T17:56:01.029Z,24.10
2018-09-19T17:59:04.190Z,24.10
2018-09-19T18:02:07.281Z,24.10
2018-09-19T18:05:10.413Z,24.10
2018-09-19T18:08:13.514Z,24.00
2018-09-19T18:11:16.573Z,24.00
2018-09-19T18:14:19.693Z,24.00
2018-09-19T18:17:22.837Z,23.90
2018-09-19T18:20:25.941Z,23.80
2018-09-19T18:23:29.034Z,23.80
2018-09-19T18:26:32.150Z,23.70
2018-09-19T18:29:35.213Z,23.60
2018-09-19T18:32:38.311Z,23.60
2018-09-19T18:35:41.391Z,23.50
2018-09-19T18:38:44.486Z,23.50
2018-09-19T18:41:47.626Z,23.40
2018-09-19T18:44:50.642Z,23.40
2018-09-19T18:47:53.753Z,23.40
2018-09-19T18:50:56.873Z,23.40
2018-09-19T18:53:59.954Z,23.40
2018-09-19T18:57:03.069Z,23.40
2018-09-19T19:00:06.144Z,23.30
2018-09-19T19:03:09.237Z,23.30
2018-09-19T19:06:12.335Z,23.30
2018-09-19T19:09:15.422Z,23.30
2018-09-19T19:12:18.566Z,23.20
2018-09-19T19:15:21.662Z,23.20
2018-09-19T19:18:24.880Z,23.20
2018-09-19T19:21:30.249Z,23.20
2018-09-19T19:24:33.595Z,23.20
2018-09-19T19:27:36.671Z,23.20
2018-09-19T19:30:59.049Z,23.10
2018-09-19T19:34:02.138Z,23.00
2018-09-19T19:37:05.498Z,23.10
2018-09-19T19:40:08.574Z,23.00
2018-09-19T19:43:11.671Z,23.00
2018-09-19T19:46:14.766Z,23.00
2018-09-19T19:49:17.845Z,22.90
2018-09-19T19:52:20.915Z,22.80
2018-09-19T19:55:24.005Z,22.70
2018-09-19T19:58:27.205Z,22.60
2018-09-19T20:01:30.278Z,22.60
2018-09-19T20:04:33.393Z,22.50
2018-09-19T20:07:36.476Z,22.50
2018-09-19T20:10:39.602Z,22.50
2018-09-19T20:13:42.621Z,22.40
2018-09-19T20:16:45.701Z,22.40
2018-09-19T20:19:48.797Z,22.40
2018-09-19T20:22:51.853Z,22.40
2018-09-19T20:25:54.971Z,22.40
2018-09-19T20:28:58.038Z,22.40
2018-09-19T20:32:01.119Z,22.40
2018-09-19T20:35:04.235Z,22.40
2018-09-19T20:38:07.342Z,22.40
2018-09-19T20:41:10.548Z,22.50
2018-09-19T20:44:13.602Z,22.50
2018-09-19T20:47:16.773Z,22.50
2018-09-19T20:50:24.765Z,22.50
2018-09-19T20:53:27.876Z,22.50
2018-09-19T20:56:30.941Z,22.50
2018-09-19T20:59:37.067Z,22.50
2018-09-19T21:02:52.366Z,22.40
2018-09-19T21:05:57.487Z,22.50
2018-09-19T21:09:01.022Z,22.40
2018-09-19T21:12:04.093Z,22.50
2018-09-19T21:15:07.201Z,22.50
2018-09-19T21:18:10.306Z,22.50
2018-09-19T21:21:27.197Z,22.50
2018-09-19T21:24:30.285Z,22.50
2018-09-19T21:27:33.393Z,22.50
2018-09-19T21:30:36.481Z,22.40
2018-09-19T21:33:39.617Z,22.30
2018-09-19T21:36:42.947Z,22.30
2018-09-19T21:39:46.014Z,22.30
2018-09-19T21:42:49.125Z,22.30
2018-09-19T21:45:52.193Z,22.30
2018-09-19T21:48:55.297Z,22.20
2018-09-19T21:51:58.378Z,22.20
2018-09-19T21:55:01.730Z,22.20
2018-09-19T21:58:04.845Z,22.20
2018-09-19T22:01:07.941Z,22.10
2018-09-19T22:04:11.354Z,22.00
2018-09-19T22:07:14.465Z,21.80
2018-09-19T22:10:17.558Z,21.60
2018-09-19T22:13:20.641Z,21.50
2018-09-19T22:16:23.705Z,21.30
2018-09-19T22:19:26.805Z,21.20
2018-09-19T22:22:29.922Z,21.00
2018-09-19T22:25:33.054Z,20.90
2018-09-19T22:28:36.171Z,20.90
2018-09-19T22:31:39.267Z,20.80
2018-09-19T22:34:42.361Z,20.80
2018-09-19T22:37:45.471Z,20.80
2018-09-19T22:40:48.553Z,20.70
2018-09-19T22:43:51.649Z,20.60
2018-09-19T22:46:54.741Z,20.40
2018-09-19T22:49:57.837Z,20.40
2018-09-19T22:53:00.921Z,20.30
2018-09-19T22:56:04.056Z,20.20
2018-09-19T22:59:07.165Z,20.20
2018-09-19T23:02:10.333Z,20.10
2018-09-19T23:05:13.437Z,20.00
2018-09-19T23:08:16.516Z,20.00
2018-09-19T23:11:19.671Z,20.00
2018-09-19T23:14:22.805Z,19.90
2018-09-19T23:17:25.910Z,19.80
2018-09-19T23:20:28.989Z,19.80
2018-09-19T23:23:32.089Z,19.80
2018-09-19T23:26:35.181Z,19.70
2018-09-19T23:29:38.313Z,19.60
2018-09-19T23:32:41.394Z,19.60
2018-09-19T23:35:44.483Z,19.50
2018-09-19T23:38:47.570Z,19.50
2018-09-19T23:41:50.685Z,19.50
2018-09-19T23:44:53.886Z,19.50
2018-09-19T23:47:57.162Z,19.40
2018-09-19T23:51:00.233Z,19.40
2018-09-19T23:54:03.334Z,19.30
2018-09-19T23:57:06.432Z,19.20
